createdAt,value
2022-11-10T00:03:13.767Z,42.37
2022-11-10T00:06:36.834Z,41.66
2022-11-10T00:09:59.412Z,39.66
2022-11-10T00:13:22.283Z,39.63
2022-11-10T00:17:04.832Z,38.91
2022-11-10T00:20:29.943Z,38.33
2022-11-10T00:23:55.552Z,38.08
2022-11-10T00:27:21.343Z,36.15
2022-11-10T00:30:46.771Z,35.90
2022-11-10T00:34:13.487Z,36.43
2022-11-10T00:37:39.022Z,35.51
2022-11-10T00:41:02.312Z,31.26
2022-11-10T00:44:24.880Z,34.28
2022-11-10T00:47:50.250Z,32.40
2022-11-10T00:51:28.089Z,31.75
2022-11-10T00:54:51.340Z,33.80
2022-11-10T00:58:14.469Z,28.29
2022-11-10T01:01:45.663Z,31.20
2022-11-10T01:05:08.643Z,31.38
2022-11-10T01:08:31.335Z,29.28
2022-11-10T01:11:55.194Z,29.23
2022-11-10T01:15:19.896Z,30.97
2022-11-10T01:18:51.593Z,29.17
2022-11-10T01:22:14.493Z,29.30
2022-11-10T01:25:37.808Z,29.52
2022-11-10T01:29:01.697Z,28.66
2022-11-10T01:32:24.597Z,29.41
2022-11-10T01:35:47.989Z,28.63
2022-11-10T01:39:11.108Z,28.37
2022-11-10T01:43:01.501Z,27.33
2022-11-10T01:46:24.595Z,27.98
2022-11-10T01:49:47.368Z,28.07
2022-11-10T01:53:15.777Z,28.22
2022-11-10T01:56:43.695Z,28.02
2022-11-10T02:00:07.046Z,28.79
2022-11-10T02:03:36.825Z,28.32
2022-11-10T02:07:00.777Z,27.79
2022-11-10T02:10:23.732Z,29.05
2022-11-10T02:13:46.771Z,27.37
2022-11-10T02:17:09.893Z,27.88
2022-11-10T02:20:33.095Z,29.06
2022-11-10T02:23:56.200Z,28.38
2022-11-10T02:27:18.986Z,28.54
2022-11-10T02:30:41.549Z,28.85
2022-11-10T02:34:05.024Z,28.40
2022-11-10T02:37:27.950Z,28.30
2022-11-10T02:40:51.632Z,27.75
2022-11-10T02:44:14.554Z,29.03
2022-11-10T02:47:37.807Z,29.20
2022-11-10T02:51:00.566Z,28.14
2022-11-10T02:54:23.155Z,28.93
2022-11-10T02:57:46.141Z,29.57
2022-11-10T03:01:09.251Z,27.45
2022-11-10T03:04:32.139Z,29.19
2022-11-10T03:07:56.500Z,28.85
2022-11-10T03:11:19.502Z,29.20
2022-11-10T03:14:42.002Z,29.14
2022-11-10T03:18:06.703Z,29.67
2022-11-10T03:21:29.424Z,29.34
2022-11-10T03:24:52.721Z,28.27
2022-11-10T03:28:16.440Z,28.31
2022-11-10T03:31:39.855Z,29.57
2022-11-10T03:35:03.211Z,29.32
2022-11-10T03:38:25.811Z,28.35
2022-11-10T03:41:48.995Z,28.30
2022-11-10T03:45:13.857Z,28.57
2022-11-10T03:48:37.458Z,28.68
2022-11-10T03:52:00.491Z,28.24
2022-11-10T03:55:23.643Z,28.14
2022-11-10T03:58:46.415Z,28.19
2022-11-10T04:02:09.269Z,28.97
2022-11-10T04:05:50.586Z,28.32
2022-11-10T04:09:15.552Z,29.10
2022-11-10T04:12:57.307Z,28.36
2022-11-10T04:16:20.365Z,28.03
2022-11-10T04:19:43.354Z,29.45
2022-11-10T04:23:26.206Z,28.13
2022-11-10T04:26:49.865Z,28.71
2022-11-10T04:30:13.159Z,27.46
2022-11-10T04:33:37.207Z,28.53
2022-11-10T04:37:00.349Z,28.74
2022-11-10T04:40:22.542Z,29.14
2022-11-10T04:43:45.937Z,28.75
2022-11-10T04:47:11.871Z,28.27
2022-11-10T04:50:35.934Z,28.49
2022-11-10T04:53:58.688Z,28.43
2022-11-10T04:57:21.669Z,28.49
2022-11-10T05:00:44.881Z,28.56
2022-11-10T05:04:07.497Z,28.16
2022-11-10T05:07:30.531Z,28.58
2022-11-10T05:10:53.410Z,28.17
2022-11-10T05:14:15.981Z,29.26
2022-11-10T05:17:39.210Z,29.24
2022-11-10T05:21:02.525Z,29.52
2022-11-10T05:24:25.728Z,29.07
2022-11-10T05:27:48.792Z,29.62
2022-11-10T05:31:12.395Z,30.11
2022-11-10T05:34:35.393Z,30.17
2022-11-10T05:37:58.594Z,30.28
2022-11-10T05:41:21.385Z,30.01
2022-11-10T05:44:44.042Z,30.06
2022-11-10T05:48:08.232Z,30.35
2022-11-10T05:51:30.957Z,30.56
2022-11-10T05:54:56.369Z,30.73
2022-11-10T05:58:19.665Z,30.51
2022-11-10T06:01:42.657Z,30.60
2022-11-10T06:05:05.711Z,31.11
2022-11-10T06:08:28.659Z,30.74
2022-11-10T06:11:52.133Z,30.55
2022-11-10T06:15:16.616Z,30.49
2022-11-10T06:18:39.790Z,31.03
2022-11-10T06:22:07.354Z,30.61
2022-11-10T06:25:32.220Z,30.88
2022-11-10T06:28:55.370Z,31.06
2022-11-10T06:32:18.344Z,31.54
2022-11-10T06:35:41.085Z,32.14
2022-11-10T06:39:04.741Z,30.63
2022-11-10T06:42:27.601Z,31.62
2022-11-10T06:45:50.407Z,31.23
2022-11-10T06:49:13.152Z,31.68
2022-11-10T06:52:35.661Z,31.49
2022-11-10T06:55:58.402Z,31.73
2022-11-10T06:59:21.256Z,31.41
2022-11-10T07:02:44.524Z,30.85
2022-11-10T07:06:07.904Z,31.87
2022-11-10T07:09:31.298Z,31.91
2022-11-10T07:13:01.344Z,32.34
2022-11-10T07:16:24.663Z,32.87
2022-11-10T07:19:47.450Z,32.82
2022-11-10T07:23:10.831Z,33.00
2022-11-10T07:26:33.228Z,33.61
2022-11-10T07:29:56.044Z,33.50
2022-11-10T07:33:19.089Z,33.46
2022-11-10T07:36:41.814Z,33.54
2022-11-10T07:40:05.388Z,33.42
2022-11-10T07:43:28.162Z,32.90
2022-11-10T07:46:51.531Z,33.80
2022-11-10T07:50:14.415Z,33.73
2022-11-10T07:53:37.689Z,33.30
2022-11-10T07:57:00.493Z,33.71
2022-11-10T08:00:23.654Z,33.42
2022-11-10T08:03:46.622Z,34.07
2022-11-10T08:07:09.455Z,33.78
2022-11-10T08:10:34.932Z,33.61
2022-11-10T08:13:57.565Z,34.53
2022-11-10T08:17:20.421Z,34.09
2022-11-10T08:20:43.376Z,34.97
2022-11-10T08:24:07.687Z,35.02
2022-11-10T08:27:31.091Z,35.84
2022-11-10T08:30:54.188Z,36.07
2022-11-10T08:34:17.325Z,36.00
2022-11-10T08:37:39.812Z,36.74
2022-11-10T08:41:02.630Z,36.46
2022-11-10T08:44:25.395Z,37.61
2022-11-10T08:47:48.187Z,38.09
2022-11-10T08:51:10.758Z,38.25
2022-11-10T08:54:34.394Z,38.18
2022-11-10T08:58:01.605Z,38.12
2022-11-10T09:01:24.339Z,38.06
2022-11-10T09:04:47.412Z,37.22
2022-11-10T09:08:10.639Z,37.10
2022-11-10T09:11:33.364Z,38.02
2022-11-10T09:14:56.212Z,39.41
2022-11-10T09:18:19.135Z,39.86
2022-11-10T09:21:42.075Z,38.45
2022-11-10T09:25:05.889Z,39.39
2022-11-10T09:28:28.474Z,40.72
2022-11-10T09:31:51.585Z,39.64
2022-11-10T09:35:14.641Z,39.47
2022-11-10T09:38:37.650Z,40.20
2022-11-10T09:42:01.747Z,39.94
2022-11-10T09:45:48.413Z,40.40
2022-11-10T09:49:40.058Z,41.64
2022-11-10T09:53:04.337Z,41.31
2022-11-10T09:56:39.155Z,41.17
2022-11-10T10:00:02.026Z,39.42
2022-11-10T10:03:32.424Z,41.24
2022-11-10T10:07:24.008Z,41.30
2022-11-10T10:10:51.419Z,41.40
2022-11-10T10:14:40.408Z,43.57
2022-11-10T10:18:12.071Z,43.07
2022-11-10T10:21:47.723Z,43.39
2022-11-10T10:25:30.591Z,44.04
2022-11-10T10:28:54.014Z,43.45
2022-11-10T10:32:18.549Z,43.81
2022-11-10T10:35:43.258Z,45.41
2022-11-10T10:39:32.595Z,46.28
2022-11-10T10:42:55.396Z,45.80
2022-11-10T10:46:20.281Z,44.26
2022-11-10T10:50:26.434Z,46.38
2022-11-10T10:53:51.245Z,45.60
2022-11-10T10:57:31.538Z,47.61
2022-11-10T11:01:06.576Z,46.52
2022-11-10T11:04:39.187Z,45.09
2022-11-10T11:08:03.764Z,45.93
2022-11-10T11:11:36.846Z,46.06
2022-11-10T11:15:23.157Z,46.46
2022-11-10T11:18:47.046Z,46.55
2022-11-10T11:22:52.095Z,47.00
2022-11-10T11:26:48.145Z,47.68
2022-11-10T11:30:20.481Z,48.41
2022-11-10T11:33:51.034Z,48.84
2022-11-10T11:37:49.274Z,49.36
2022-11-10T11:41:21.197Z,49.38
2022-11-10T11:45:17.007Z,50.24
2022-11-10T11:49:20.444Z,48.35
2022-11-10T11:53:01.666Z,47.96
2022-11-10T11:56:39.126Z,49.85
2022-11-10T12:00:15.303Z,48.58
2022-11-10T12:03:42.661Z,47.45
2022-11-10T12:07:20.534Z,49.24
2022-11-10T12:11:02.646Z,49.79
2022-11-10T12:15:00.617Z,51.39
2022-11-10T12:18:29.323Z,50.71
2022-11-10T12:22:10.672Z,51.96
2022-11-10T12:25:44.669Z,51.34
2022-11-10T12:29:27.510Z,51.74
2022-11-10T12:32:53.969Z,51.38
2022-11-10T12:36:18.278Z,52.55
2022-11-10T12:39:47.715Z,50.74
2022-11-10T12:43:18.074Z,51.75
2022-11-10T12:46:49.477Z,52.07
2022-11-10T12:50:17.502Z,50.91
2022-11-10T12:53:43.378Z,51.13
2022-11-10T12:57:20.833Z,52.43
2022-11-10T13:01:11.753Z,50.62
2022-11-10T13:04:35.990Z,52.24
2022-11-10T13:08:15.637Z,52.91
2022-11-10T13:11:41.282Z,51.58
2022-11-10T13:15:36.947Z,52.75
2022-11-10T13:19:00.313Z,53.76
2022-11-10T13:22:31.110Z,51.26
2022-11-10T13:26:02.735Z,52.53
2022-11-10T13:29:35.871Z,52.25
2022-11-10T13:33:36.331Z,55.54
2022-11-10T13:37:00.138Z,54.36
2022-11-10T13:40:26.265Z,53.77
2022-11-10T13:43:50.842Z,56.13
2022-11-10T13:47:54.011Z,55.56
2022-11-10T13:51:32.224Z,55.18
2022-11-10T13:55:16.825Z,54.44
2022-11-10T13:58:45.344Z,53.74
2022-11-10T14:02:37.208Z,53.91
2022-11-10T14:06:11.130Z,53.32
2022-11-10T14:09:40.782Z,53.20
2022-11-10T14:13:19.306Z,53.72
2022-11-10T14:16:44.798Z,54.57
2022-11-10T14:20:42.518Z,56.09
2022-11-10T14:24:16.697Z,57.80
2022-11-10T14:27:40.293Z,56.88
2022-11-10T14:31:03.307Z,56.23
2022-11-10T14:34:26.967Z,55.93
2022-11-10T14:37:50.676Z,55.58
2022-11-10T14:41:21.042Z,54.29
2022-11-10T14:44:44.322Z,56.50
2022-11-10T14:48:20.185Z,54.77
2022-11-10T14:51:43.650Z,55.77
2022-11-10T14:55:21.111Z,55.86
2022-11-10T14:58:47.433Z,55.87
2022-11-10T15:02:16.001Z,55.42
2022-11-10T15:05:38.530Z,55.38
2022-11-10T15:09:12.644Z,56.01
2022-11-10T15:12:40.898Z,57.28
2022-11-10T15:16:26.324Z,58.41
2022-11-10T15:19:49.859Z,57.00
2022-11-10T15:23:33.064Z,56.51
2022-11-10T15:26:56.740Z,57.03
2022-11-10T15:30:27.008Z,57.75
2022-11-10T15:33:53.867Z,57.77
2022-11-10T15:37:30.595Z,57.87
2022-11-10T15:41:05.169Z,57.33
2022-11-10T15:44:32.104Z,58.17
2022-11-10T15:47:55.857Z,57.90
2022-11-10T15:51:25.898Z,57.07
2022-11-10T15:54:51.447Z,57.40
2022-11-10T15:58:25.401Z,58.85
2022-11-10T16:01:48.898Z,57.76
2022-11-10T16:05:13.549Z,58.07
2022-11-10T16:08:37.415Z,57.26
2022-11-10T16:12:00.477Z,57.42
2022-11-10T16:15:23.571Z,57.43
2022-11-10T16:18:47.139Z,56.92
2022-11-10T16:22:14.208Z,58.83
2022-11-10T16:25:37.627Z,58.89
2022-11-10T16:29:00.641Z,58.70
2022-11-10T16:32:23.592Z,57.42
2022-11-10T16:35:46.974Z,56.90
2022-11-10T16:39:14.907Z,58.46
2022-11-10T16:42:38.154Z,57.67
2022-11-10T16:46:05.297Z,58.28
2022-11-10T16:49:36.332Z,59.71
2022-11-10T16:52:59.467Z,59.59
2022-11-10T16:56:23.960Z,59.48
2022-11-10T16:59:46.655Z,59.24
2022-11-10T17:03:17.530Z,58.50
2022-11-10T17:06:40.754Z,57.92
2022-11-10T17:10:03.777Z,57.54
2022-11-10T17:13:28.598Z,59.79
2022-11-10T17:16:51.305Z,57.42
2022-11-10T17:20:33.145Z,60.76
2022-11-10T17:23:56.286Z,61.18
2022-11-10T17:27:20.963Z,60.90
2022-11-10T17:30:44.347Z,61.64
2022-11-10T17:34:07.267Z,61.81
2022-11-10T17:37:29.842Z,61.75
2022-11-10T17:40:53.314Z,59.09
2022-11-10T17:44:20.441Z,58.78
2022-11-10T17:47:43.484Z,58.17
2022-11-10T17:51:07.121Z,60.42
2022-11-10T17:54:30.038Z,60.34
2022-11-10T17:57:54.144Z,59.73
2022-11-10T18:01:22.601Z,58.61
2022-11-10T18:04:45.142Z,59.74
2022-11-10T18:08:08.457Z,58.46
2022-11-10T18:11:31.910Z,59.90
2022-11-10T18:14:54.532Z,60.56
2022-11-10T18:18:19.143Z,60.91
2022-11-10T18:21:42.130Z,61.21
2022-11-10T18:25:05.257Z,62.23
2022-11-10T18:28:28.126Z,62.43
2022-11-10T18:31:50.797Z,62.69
2022-11-10T18:35:13.681Z,62.12
2022-11-10T18:38:36.833Z,62.28
2022-11-10T18:41:59.868Z,62.92
2022-11-10T18:45:22.654Z,62.38
2022-11-10T18:48:49.313Z,60.80
2022-11-10T18:52:12.156Z,60.26
2022-11-10T18:55:34.952Z,61.23
2022-11-10T18:58:58.294Z,60.42
2022-11-10T19:02:21.303Z,61.39
2022-11-10T19:05:44.203Z,60.66
2022-11-10T19:09:07.544Z,60.80
2022-11-10T19:12:30.470Z,61.59
2022-11-10T19:15:53.521Z,61.11
2022-11-10T19:19:16.476Z,60.60
2022-11-10T19:22:39.533Z,61.56
2022-11-10T19:26:07.658Z,62.30
2022-11-10T19:29:29.931Z,62.63
2022-11-10T19:32:53.252Z,61.98
2022-11-10T19:36:19.433Z,61.44
2022-11-10T19:39:42.219Z,62.55
2022-11-10T19:43:04.987Z,60.56
2022-11-10T19:46:29.712Z,61.25
2022-11-10T19:49:52.379Z,62.87
2022-11-10T19:53:17.290Z,65.01
2022-11-10T19:56:40.570Z,65.13
2022-11-10T20:00:03.166Z,63.10
2022-11-10T20:03:26.075Z,63.72
2022-11-10T20:06:49.051Z,62.27
2022-11-10T20:10:12.137Z,63.21
2022-11-10T20:13:35.393Z,61.87
2022-11-10T20:16:58.343Z,61.58
2022-11-10T20:20:21.759Z,62.72
2022-11-10T20:23:45.614Z,61.56
2022-11-10T20:27:08.179Z,63.26
2022-11-10T20:30:31.690Z,64.15
2022-11-10T20:33:56.951Z,64.92
2022-11-10T20:37:19.962Z,63.87
2022-11-10T20:40:44.790Z,62.63
2022-11-10T20:44:08.135Z,62.84
2022-11-10T20:47:31.050Z,62.97
2022-11-10T20:50:53.606Z,63.29
2022-11-10T20:54:18.225Z,63.76
2022-11-10T20:57:41.231Z,62.10
2022-11-10T21:01:15.015Z,63.20
2022-11-10T21:04:42.824Z,63.18
2022-11-10T21:08:07.184Z,62.60
2022-11-10T21:11:48.345Z,62.04
2022-11-10T21:15:11.387Z,61.25
2022-11-10T21:18:38.213Z,61.41
2022-11-10T21:22:01.510Z,61.44
2022-11-10T21:25:24.415Z,61.53
2022-11-10T21:28:46.941Z,61.83
2022-11-10T21:32:09.638Z,60.50
2022-11-10T21:35:37.746Z,61.32
2022-11-10T21:39:00.929Z,60.56
2022-11-10T21:42:24.194Z,61.58
2022-11-10T21:45:46.934Z,61.85
2022-11-10T21:49:09.372Z,62.64
2022-11-10T21:52:36.102Z,62.24
2022-11-10T21:56:03.975Z,62.97
2022-11-10T21:59:26.542Z,63.51
2022-11-10T22:02:49.238Z,65.01
2022-11-10T22:06:17.485Z,67.44
2022-11-10T22:09:58.805Z,67.05
2022-11-10T22:13:40.934Z,68.80
2022-11-10T22:17:22.479Z,67.85
2022-11-10T22:20:46.011Z,65.02
2022-11-10T22:24:29.569Z,65.78
2022-11-10T22:27:52.454Z,65.52
2022-11-10T22:31:15.345Z,65.69
2022-11-10T22:34:38.121Z,65.90
2022-11-10T22:38:07.934Z,66.31
2022-11-10T22:41:49.341Z,66.38
2022-11-10T22:45:12.277Z,68.75
2022-11-10T22:48:35.308Z,68.56
2022-11-10T22:51:58.283Z,67.82
2022-11-10T22:55:21.328Z,66.85
2022-11-10T22:58:44.405Z,66.89
2022-11-10T23:02:07.190Z,65.78
2022-11-10T23:05:29.791Z,65.36
2022-11-10T23:08:52.710Z,65.22
2022-11-10T23:12:15.100Z,65.47
2022-11-10T23:15:39.183Z,64.09
2022-11-10T23:19:02.818Z,62.63
2022-11-10T23:22:25.569Z,62.25
2022-11-10T23:25:59.221Z,60.39
2022-11-10T23:29:22.077Z,57.34
2022-11-10T23:32:45.058Z,55.96
2022-11-10T23:36:09.272Z,55.73
2022-11-10T23:39:32.212Z,54.26
2022-11-10T23:42:55.372Z,53.87
2022-11-10T23:46:18.556Z,53.23
2022-11-10T23:49:41.214Z,53.03
2022-11-10T23:53:03.989Z,53.68
2022-11-10T23:56:27.187Z,53.50
2022-11-10T23:59:50.304Z,53.19
